ADDS METAR Data INFO
IDs: Format: Raw Decoded Include TAF

Data at: 0433 UTC 24 Apr 2018

KPSX 240353Z AUTO 23005KT 10SM CLR 21/17 A3004 RMK AO2 SLP172 T02060172
KPSX 240253Z AUTO 22005KT 10SM CLR 21/17 A3002 RMK AO2 SLP166 T02060167 53016
KPSX 240153Z AUTO 21007KT 10SM CLR 22/16 A3000 RMK AO2 SLP159 T02170161
KPSX 240053Z AUTO 20007KT 10SM CLR 23/16 A2999 RMK AO2 SLP153 T02280156
KPSX 232353Z AUTO 19008KT 10SM CLR 24/16 A2997 RMK AO2 SLP149 T02390156 10272 20239 55010
KPSX 232253Z AUTO 19007KT 10SM CLR 26/14 A2997 RMK AO2 SLP149 T02610144
KPSX 232153Z AUTO 19007KT 10SM CLR 26/13 A2998 RMK AO2 SLP152 T02610133
KPSX 232053Z AUTO 18009KT 10SM CLR 25/14 A3000 RMK AO2 SLP160 T02500144 58027
KPSX 231953Z AUTO VRB05KT 10SM CLR 26/11 A3004 RMK AO2 SLP172 T02610106
KPSX 231853Z AUTO 10SM CLR 26/11 A3007 RMK AO2 SLP181 T02610111
KPSX 231753Z AUTO 36011KT 10SM CLR 25/10 A3008 RMK AO2 SLP186 T02500100 10256 20128 58008
KPSX 231653Z AUTO 35007KT 10SM CLR 24/11 A3011 RMK AO2 SLP194 T02390106
KPSX 231553Z AUTO 34007KT 10SM CLR 22/11 A3011 RMK AO2 SLP196 T02220111
KPSX 231453Z AUTO 36005KT 10SM CLR 21/11 A3011 RMK AO2 SLP194 T02110106 50014
KPSX 231353Z AUTO 35004KT 10SM CLR 18/13 A3011 RMK AO2 SLP195 T01830133
KPSX 231253Z AUTO 32004KT 10SM CLR 14/13 A3010 RMK AO2 SLP191 T01440128
KPSX 231153Z AUTO 33003KT 10SM CLR 13/12 A3007 RMK AO2 SLP181 T01330117 10156 20128 53012
KPSX 231053Z AUTO 35003KT 10SM CLR 13/12 A3004 RMK AO2 SLP172 T01330117
KPSX 230953Z AUTO 01006KT 10SM CLR 13/12 A3003 RMK AO2 SLP169 T01280122
KPSX 230853Z AUTO 02005KT 10SM CLR 14/12 A3003 RMK AO2 SLP168 T01390122 58002
KPSX 230753Z AUTO 01007KT 10SM CLR 14/13 A3003 RMK AO2 SLP168 T01390133
KPSX 230653Z AUTO 01004KT 10SM CLR 15/14 A3004 RMK AO2 SLP173 T01500139
KPSX 230553Z AUTO 03005KT 10SM CLR 16/13 A3004 RMK AO2 SLP170 T01560133 10228 20144 402500144 51003
KPSX 230453Z AUTO 04005KT 10SM CLR 16/13 A3003 RMK AO2 SLP169 T01560128
KPSX 230353Z AUTO 06003KT 10SM CLR 16/13 A3003 RMK AO2 SLP170 T01610133
KPSX 230153Z AUTO 30005KT 10SM CLR 18/13 A3003 RMK AO2 SLP167 T01830133
KPSX 230053Z AUTO 36007KT 10SM CLR 20/13 A2999 RMK AO2 SLP154 T02000128
KPSX 222353Z AUTO 36010KT 10SM CLR 23/13 A2997 RMK AO2 SLP148 T02280128 10250 20222 55007
KPSX 222253Z AUTO 35017KT 10SM CLR 24/12 A2997 RMK AO2 SLP147 T02390122
KPSX 222153Z AUTO 01015KT 10SM CLR 25/13 A2997 RMK AO2 SLP149 T02500133
KPSX 222053Z AUTO 34012G21KT 10SM CLR 24/13 A2999 RMK AO2 SLP155 T02440128 57020
KPSX 221953Z AUTO 34015G20KT 10SM CLR 24/13 A3002 RMK AO2 SLP163 T02390133
KPSX 221853Z AUTO 35016G22KT 10SM CLR 23/14 A3003 RMK AO2 SLP168 T02330139
KPSX 221753Z AUTO 33016G22KT 10SM CLR 22/14 A3005 RMK AO2 SLP176 T02220139 10222 20161 50004
KPSX 221653Z AUTO 34014G21KT 10SM CLR 20/14 A3006 RMK AO2 SLP180 T02000139